createdAt,value
2018-04-27T00:01:24.427Z,97.20
2018-04-27T00:03:52.232Z,97.30
2018-04-27T00:06:20.055Z,97.50
2018-04-27T00:08:47.858Z,97.20
2018-04-27T00:11:15.656Z,97.20
2018-04-27T00:13:43.527Z,97.20
2018-04-27T00:16:11.339Z,97.30
2018-04-27T00:18:39.148Z,97.10
2018-04-27T00:21:07.730Z,97.00
2018-04-27T00:23:36.371Z,97.20
2018-04-27T00:26:04.292Z,97.20
2018-04-27T00:28:32.103Z,97.20
2018-04-27T00:30:59.919Z,97.30
2018-04-27T00:33:27.783Z,97.30
2018-04-27T00:35:55.604Z,97.30
2018-04-27T00:38:23.407Z,97.30
2018-04-27T00:40:51.985Z,97.30
2018-04-27T00:43:20.564Z,97.30
2018-04-27T00:45:49.131Z,97.40
2018-04-27T00:48:16.918Z,97.40
2018-04-27T00:50:45.476Z,97.40
2018-04-27T00:53:16.173Z,97.40
2018-04-27T00:55:43.975Z,97.40
2018-04-27T00:58:11.792Z,97.40
2018-04-27T01:00:39.639Z,97.30
2018-04-27T01:03:07.455Z,97.30
2018-04-27T01:05:35.260Z,97.20
2018-04-27T01:08:03.869Z,97.10
2018-04-27T01:10:31.692Z,97.00
2018-04-27T01:12:59.515Z,97.10
2018-04-27T01:15:27.347Z,97.20
2018-04-27T01:17:55.927Z,97.80
2018-04-27T01:20:24.511Z,97.90
2018-04-27T01:22:53.098Z,98.00
2018-04-27T01:25:21.671Z,98.10
2018-04-27T01:27:50.247Z,98.20
2018-04-27T01:30:18.811Z,98.30
2018-04-27T01:32:46.620Z,98.20
2018-04-27T01:35:14.428Z,98.20
2018-04-27T01:37:42.263Z,98.30
2018-04-27T01:40:10.066Z,98.30
2018-04-27T01:42:37.879Z,98.20
2018-04-27T01:45:05.696Z,98.20
2018-04-27T01:47:33.500Z,98.20
2018-04-27T01:50:02.088Z,98.20
2018-04-27T01:52:29.943Z,98.20
2018-04-27T01:54:58.511Z,98.30
2018-04-27T01:57:27.081Z,98.20
2018-04-27T01:59:54.894Z,98.20
2018-04-27T02:02:22.695Z,98.30
2018-04-27T02:04:50.520Z,98.20
2018-04-27T02:07:18.325Z,98.30
2018-04-27T02:09:46.128Z,98.20
2018-04-27T02:12:14.700Z,98.10
2018-04-27T02:14:42.496Z,98.10
2018-04-27T02:17:10.287Z,98.00
2018-04-27T02:19:38.080Z,98.00
2018-04-27T02:22:05.883Z,97.90
2018-04-27T02:24:33.692Z,97.90
2018-04-27T02:27:01.503Z,97.80
2018-04-27T02:29:30.076Z,97.70
2018-04-27T02:31:57.895Z,97.70
2018-04-27T02:34:25.695Z,97.50
2018-04-27T02:36:53.499Z,97.50
2018-04-27T02:39:21.303Z,97.50
2018-04-27T02:41:49.100Z,97.70
2018-04-27T02:44:17.673Z,98.00
2018-04-27T02:46:45.471Z,98.00
2018-04-27T02:49:13.284Z,98.20
2018-04-27T02:51:41.103Z,98.40
2018-04-27T02:54:08.894Z,98.40
2018-04-27T02:56:36.691Z,98.40
2018-04-27T02:59:04.574Z,98.50
2018-04-27T03:01:33.153Z,98.30
2018-04-27T03:04:00.953Z,98.20
2018-04-27T03:06:28.800Z,98.40
2018-04-27T03:08:57.384Z,98.10
2018-04-27T03:11:25.968Z,98.20
2018-04-27T03:13:54.555Z,98.10
2018-04-27T03:16:23.154Z,98.10
2018-04-27T03:18:51.014Z,98.10
2018-04-27T03:21:18.826Z,98.10
2018-04-27T03:23:46.717Z,98.20
2018-04-27T03:26:14.475Z,98.30
2018-04-27T03:28:42.279Z,98.30
2018-04-27T03:31:10.939Z,98.30
2018-04-27T03:33:39.511Z,98.20
2018-04-27T03:36:07.320Z,98.20
2018-04-27T03:38:35.132Z,98.20
2018-04-27T03:41:02.961Z,98.20
2018-04-27T03:43:30.760Z,98.50
2018-04-27T03:45:58.572Z,98.30
2018-04-27T03:48:27.578Z,98.30
2018-04-27T03:50:55.404Z,98.30
2018-04-27T03:53:23.987Z,98.50
2018-04-27T03:55:52.536Z,98.40
2018-04-27T03:58:20.332Z,98.40
2018-04-27T04:01:00.692Z,98.30
2018-04-27T04:03:40.237Z,98.30
2018-04-27T04:06:08.855Z,98.50
2018-04-27T04:08:36.631Z,98.50
2018-04-27T04:11:04.443Z,98.50
2018-04-27T04:13:32.999Z,98.40
2018-04-27T04:16:00.803Z,98.40
2018-04-27T04:18:29.424Z,98.50
2018-04-27T04:20:57.976Z,98.70
2018-04-27T04:23:26.546Z,98.70
2018-04-27T04:25:55.101Z,98.70
2018-04-27T04:28:22.892Z,98.70
2018-04-27T04:30:51.472Z,98.60
2018-04-27T04:33:19.299Z,98.60
2018-04-27T04:35:47.108Z,98.70
2018-04-27T04:38:15.701Z,98.80
2018-04-27T04:40:43.515Z,98.80
2018-04-27T04:43:11.321Z,98.80
2018-04-27T04:45:39.871Z,98.80
2018-04-27T04:48:07.721Z,98.80
2018-04-27T04:50:35.499Z,99.00
2018-04-27T04:53:03.291Z,98.70
2018-04-27T04:55:31.856Z,98.70
2018-04-27T04:57:59.755Z,98.70
2018-04-27T05:00:28.293Z,98.80
2018-04-27T05:02:56.196Z,98.80
2018-04-27T05:05:23.920Z,98.80
2018-04-27T05:07:51.721Z,98.80
2018-04-27T05:10:20.308Z,98.90
2018-04-27T05:12:48.876Z,98.80
2018-04-27T05:15:16.663Z,98.80
2018-04-27T05:17:45.191Z,98.90
2018-04-27T05:20:12.431Z,98.90
2018-04-27T05:22:40.212Z,98.80
2018-04-27T05:25:08.007Z,98.70
2018-04-27T05:27:36.564Z,98.70
2018-04-27T05:30:04.417Z,98.70
2018-04-27T05:32:32.237Z,98.60
2018-04-27T05:35:00.874Z,98.40
2018-04-27T05:37:28.693Z,98.40
2018-04-27T05:39:56.599Z,98.40
2018-04-27T05:42:25.181Z,98.20
2018-04-27T05:44:53.015Z,98.10
2018-04-27T05:47:20.891Z,98.00
2018-04-27T05:49:48.764Z,97.90
2018-04-27T05:52:16.544Z,97.90
2018-04-27T05:54:44.328Z,97.90
2018-04-27T05:57:12.160Z,98.00
2018-04-27T05:59:39.944Z,98.00
2018-04-27T06:02:07.741Z,98.30
2018-04-27T06:04:36.367Z,98.40
2018-04-27T06:07:04.923Z,98.50
2018-04-27T06:09:33.484Z,98.60
2018-04-27T06:12:01.304Z,98.60
2018-04-27T06:14:29.154Z,98.70
2018-04-27T06:16:56.986Z,98.90
2018-04-27T06:19:24.764Z,98.90
2018-04-27T06:21:53.360Z,99.00
2018-04-27T06:24:21.157Z,99.00
2018-04-27T06:26:48.970Z,99.10
2018-04-27T06:29:17.511Z,98.90
2018-04-27T06:31:45.349Z,98.90
2018-04-27T06:34:13.135Z,99.00
2018-04-27T06:36:40.991Z,98.90
2018-04-27T06:39:08.773Z,99.10
2018-04-27T06:41:36.556Z,99.20
2018-04-27T06:44:04.375Z,99.10
2018-04-27T06:46:32.304Z,99.10
2018-04-27T06:49:00.091Z,99.30
2018-04-27T06:51:28.004Z,99.30
2018-04-27T06:53:55.799Z,99.20
2018-04-27T06:56:23.683Z,99.30
2018-04-27T06:58:52.399Z,99.20
2018-04-27T07:01:20.283Z,99.20
2018-04-27T07:03:48.127Z,99.20
2018-04-27T07:06:16.000Z,99.20
2018-04-27T07:08:43.877Z,99.00
2018-04-27T07:11:11.760Z,99.00
2018-04-27T07:13:39.644Z,98.90
2018-04-27T07:16:07.419Z,98.90
2018-04-27T07:18:35.956Z,98.60
2018-04-27T07:21:03.744Z,98.60
2018-04-27T07:23:31.547Z,98.30
2018-04-27T07:26:00.164Z,98.30
2018-04-27T07:28:27.936Z,98.30
2018-04-27T07:30:55.712Z,98.20
2018-04-27T07:33:23.500Z,98.10
2018-04-27T07:35:51.271Z,98.20
2018-04-27T07:38:19.907Z,98.20
2018-04-27T07:40:47.796Z,98.10
2018-04-27T07:43:15.677Z,97.70
2018-04-27T07:45:43.527Z,98.00
2018-04-27T07:48:11.352Z,98.00
2018-04-27T07:50:39.158Z,97.90
2018-04-27T07:53:07.004Z,97.90
2018-04-27T07:55:34.892Z,97.70
2018-04-27T07:58:02.773Z,97.70
2018-04-27T08:00:30.720Z,97.50
2018-04-27T08:02:58.648Z,97.80
2018-04-27T08:05:26.536Z,97.40
2018-04-27T08:07:54.408Z,97.40
2018-04-27T08:10:22.355Z,97.00
2018-04-27T08:12:50.229Z,96.70
2018-04-27T08:15:18.128Z,96.60
2018-04-27T08:17:46.008Z,97.30
2018-04-27T08:20:13.954Z,96.80
2018-04-27T08:22:41.833Z,96.40
2018-04-27T08:25:09.720Z,95.60
2018-04-27T08:27:37.612Z,95.30
2018-04-27T08:30:05.488Z,95.10
2018-04-27T08:32:33.320Z,95.20
2018-04-27T08:35:01.268Z,94.80
2018-04-27T08:37:29.048Z,93.70
2018-04-27T08:39:56.824Z,93.50
2018-04-27T08:42:25.369Z,93.30
2018-04-27T08:44:53.256Z,93.30
2018-04-27T08:47:21.088Z,93.30
2018-04-27T08:49:48.868Z,92.70
2018-04-27T08:52:16.771Z,92.30
2018-04-27T08:54:45.416Z,91.60
2018-04-27T08:57:13.276Z,91.60
2018-04-27T08:59:41.188Z,91.30
2018-04-27T09:02:09.747Z,91.50
2018-04-27T09:04:37.544Z,91.50
2018-04-27T09:07:06.139Z,91.30
2018-04-27T09:09:33.946Z,91.30
2018-04-27T09:12:01.762Z,92.00
2018-04-27T09:14:30.311Z,91.60
2018-04-27T09:16:58.231Z,91.60
2018-04-27T09:19:26.028Z,91.40
2018-04-27T09:21:53.859Z,91.10
2018-04-27T09:24:21.680Z,91.10
2018-04-27T09:26:49.500Z,91.00
2018-04-27T09:29:17.351Z,90.90
2018-04-27T09:31:45.144Z,91.90
2018-04-27T09:34:12.980Z,91.80
2018-04-27T09:36:40.781Z,91.60
2018-04-27T09:39:08.619Z,91.20
2018-04-27T09:41:36.493Z,91.10
2018-04-27T09:44:04.392Z,90.80
2018-04-27T09:46:32.257Z,90.90
2018-04-27T09:49:00.115Z,91.30
2018-04-27T09:51:27.996Z,91.20
2018-04-27T09:53:55.789Z,91.40
2018-04-27T09:56:24.378Z,92.00
2018-04-27T09:58:52.989Z,92.30
2018-04-27T10:01:20.797Z,92.30
2018-04-27T10:03:48.635Z,91.80
2018-04-27T10:06:16.526Z,91.70
2018-04-27T10:08:44.332Z,91.40
2018-04-27T10:11:12.145Z,91.60
2018-04-27T10:13:39.943Z,91.70
2018-04-27T10:16:08.592Z,91.50
2018-04-27T10:18:36.356Z,91.40
2018-04-27T10:21:04.152Z,91.50
2018-04-27T10:23:32.746Z,91.90
2018-04-27T10:26:01.316Z,91.90
2018-04-27T10:28:29.107Z,91.80
2018-04-27T10:30:56.933Z,91.80
2018-04-27T10:33:24.788Z,91.70
2018-04-27T10:35:52.641Z,91.50
2018-04-27T10:38:20.459Z,91.70
2018-04-27T10:40:49.091Z,91.60
2018-04-27T10:43:16.956Z,91.60
2018-04-27T10:45:44.764Z,91.30
2018-04-27T10:48:13.391Z,90.80
2018-04-27T10:50:41.344Z,90.80
2018-04-27T10:53:09.242Z,90.80
2018-04-27T10:55:37.106Z,90.80
2018-04-27T10:58:04.992Z,90.40
2018-04-27T11:00:32.871Z,90.80
2018-04-27T11:03:00.740Z,91.00
2018-04-27T11:05:28.626Z,90.80
2018-04-27T11:07:57.272Z,91.30
2018-04-27T11:10:25.195Z,91.30
2018-04-27T11:12:53.088Z,91.30
2018-04-27T11:15:20.975Z,91.40
2018-04-27T11:17:48.860Z,91.70
2018-04-27T11:20:16.815Z,91.50
2018-04-27T11:22:44.692Z,91.30
2018-04-27T11:25:12.589Z,91.60
2018-04-27T11:27:41.236Z,91.40
2018-04-27T11:30:09.040Z,91.40
2018-04-27T11:32:36.837Z,91.70
2018-04-27T11:35:04.711Z,91.80
2018-04-27T11:37:32.519Z,91.80
2018-04-27T11:40:01.061Z,91.50
2018-04-27T11:42:28.892Z,91.50
2018-04-27T11:44:56.672Z,91.50
2018-04-27T11:47:24.547Z,91.30
2018-04-27T11:49:52.404Z,91.90
2018-04-27T11:52:20.285Z,91.60
2018-04-27T11:54:48.157Z,92.10
2018-04-27T11:57:16.028Z,91.40
2018-04-27T11:59:43.904Z,91.40
2018-04-27T12:02:12.732Z,91.50
2018-04-27T12:04:41.374Z,91.60
2018-04-27T12:07:09.264Z,91.60
2018-04-27T12:09:37.973Z,91.50
2018-04-27T12:12:05.870Z,91.50
2018-04-27T12:14:33.805Z,91.60
2018-04-27T12:17:02.444Z,92.00
2018-04-27T12:19:30.246Z,92.00
2018-04-27T12:21:58.829Z,91.50
2018-04-27T12:24:27.442Z,91.60
2018-04-27T12:26:55.229Z,91.60
2018-04-27T12:29:23.040Z,91.80
2018-04-27T12:31:51.703Z,92.50
2018-04-27T12:34:20.194Z,92.10
2018-04-27T12:36:48.057Z,92.10
2018-04-27T12:39:15.923Z,92.10
2018-04-27T12:41:43.787Z,92.40
2018-04-27T12:44:11.677Z,92.00
2018-04-27T12:46:40.340Z,92.20
2018-04-27T12:49:08.250Z,92.10
2018-04-27T12:51:36.195Z,92.20
2018-04-27T12:54:04.843Z,92.10
2018-04-27T12:56:32.755Z,92.10
2018-04-27T12:59:01.367Z,92.00
2018-04-27T13:01:29.167Z,92.00
2018-04-27T13:03:56.977Z,92.40
2018-04-27T13:06:24.856Z,92.90
2018-04-27T13:08:54.164Z,93.10
2018-04-27T13:11:22.188Z,93.60
2018-04-27T13:13:51.528Z,94.20
2018-04-27T13:16:19.466Z,94.20
2018-04-27T13:18:49.039Z,94.90
2018-04-27T13:21:17.615Z,95.40
2018-04-27T13:23:45.395Z,95.30
2018-04-27T13:26:13.267Z,95.50
2018-04-27T13:28:41.055Z,95.20
2018-04-27T13:31:09.657Z,95.20
2018-04-27T13:33:37.455Z,95.30
2018-04-27T13:36:05.369Z,95.40
2018-04-27T13:38:33.191Z,95.30
2018-04-27T13:41:01.138Z,95.50
2018-04-27T13:43:29.021Z,95.70
2018-04-27T13:45:56.841Z,95.70
2018-04-27T13:48:25.405Z,95.80
2018-04-27T13:50:54.121Z,95.30
2018-04-27T13:53:22.024Z,95.30
2018-04-27T13:55:49.948Z,95.20
2018-04-27T13:58:17.820Z,94.90
2018-04-27T14:00:45.782Z,94.50
2018-04-27T14:03:13.799Z,93.90
2018-04-27T14:05:41.721Z,93.40
2018-04-27T14:08:09.681Z,91.80
2018-04-27T14:10:38.332Z,91.30
2018-04-27T14:13:06.242Z,91.30
2018-04-27T14:15:34.908Z,88.80
2018-04-27T14:18:03.545Z,88.20
2018-04-27T14:20:31.447Z,88.20
2018-04-27T14:22:59.233Z,87.30
2018-04-27T14:25:27.808Z,82.10
2018-04-27T14:27:56.412Z,80.70
2018-04-27T14:30:24.256Z,80.60
2018-04-27T14:32:52.945Z,80.50
2018-04-27T14:35:21.500Z,78.80
2018-04-27T14:37:49.368Z,78.80
2018-04-27T14:40:17.156Z,77.90
2018-04-27T14:42:45.768Z,77.70
2018-04-27T14:45:13.539Z,77.70
2018-04-27T14:47:41.329Z,76.70
2018-04-27T14:50:09.219Z,76.20
2018-04-27T14:52:37.080Z,74.80
2018-04-27T14:55:05.800Z,75.40
2018-04-27T14:57:33.737Z,75.20
2018-04-27T15:00:01.625Z,73.90
2018-04-27T15:02:30.345Z,73.10
2018-04-27T15:04:58.139Z,73.20
2018-04-27T15:07:25.926Z,72.80
2018-04-27T15:09:53.716Z,71.90
2018-04-27T15:12:22.391Z,71.20
2018-04-27T15:14:51.086Z,69.30
2018-04-27T15:17:19.664Z,69.00
2018-04-27T15:19:47.542Z,69.00
2018-04-27T15:22:15.321Z,68.70
2018-04-27T15:24:43.172Z,68.10
2018-04-27T15:27:11.051Z,67.80
2018-04-27T15:29:39.049Z,66.50
2018-04-27T15:32:06.856Z,66.50
2018-04-27T15:34:35.461Z,65.80
2018-04-27T15:37:04.157Z,65.80
2018-04-27T15:39:32.086Z,66.10
2018-04-27T15:42:00.759Z,66.20
2018-04-27T15:44:28.647Z,66.30
2018-04-27T15:46:57.368Z,66.90
2018-04-27T15:49:25.959Z,65.20
2018-04-27T15:51:53.907Z,65.20
2018-04-27T15:54:21.823Z,66.00
2018-04-27T15:56:49.614Z,66.50
2018-04-27T15:59:18.253Z,67.00
2018-04-27T16:01:46.931Z,67.70
2018-04-27T16:04:14.821Z,67.70
2018-04-27T16:06:42.700Z,68.00
2018-04-27T16:09:10.610Z,68.00
2018-04-27T16:11:38.591Z,68.10
2018-04-27T16:14:06.487Z,68.20
2018-04-27T16:16:34.363Z,68.40
2018-04-27T16:19:03.151Z,68.60
2018-04-27T16:21:31.255Z,68.90
2018-04-27T16:23:59.891Z,69.00
2018-04-27T16:26:29.260Z,69.00
2018-04-27T16:28:57.165Z,69.50
2018-04-27T16:31:26.032Z,69.60
2018-04-27T16:33:53.912Z,69.10
2018-04-27T16:36:21.788Z,69.30
2018-04-27T16:38:49.745Z,69.20
2018-04-27T16:41:17.619Z,69.10
2018-04-27T16:43:45.428Z,69.40
2018-04-27T16:46:14.123Z,68.50
2018-04-27T16:48:42.735Z,68.00
2018-04-27T16:51:10.547Z,68.00
2018-04-27T16:53:38.372Z,68.50
2018-04-27T16:56:06.253Z,68.00
2018-04-27T16:58:34.201Z,68.80
2018-04-27T17:01:02.244Z,69.90
2018-04-27T17:03:30.245Z,72.40
2018-04-27T17:05:58.125Z,73.80
2018-04-27T17:08:26.008Z,74.70
2018-04-27T17:10:53.895Z,74.80
2018-04-27T17:13:22.540Z,75.60
2018-04-27T17:15:50.563Z,75.60
2018-04-27T17:18:18.459Z,76.30
2018-04-27T17:20:46.364Z,76.90
2018-04-27T17:23:14.249Z,77.20
2018-04-27T17:25:42.884Z,76.80
2018-04-27T17:28:10.771Z,76.80
2018-04-27T17:30:38.677Z,77.10
2018-04-27T17:33:07.332Z,73.80
2018-04-27T17:35:35.502Z,73.60
2018-04-27T17:38:03.396Z,73.30
2018-04-27T17:40:32.060Z,74.10
2018-04-27T17:42:59.941Z,74.20
2018-04-27T17:45:27.901Z,74.10
2018-04-27T17:47:55.770Z,74.70
2018-04-27T17:50:23.660Z,75.90
2018-04-27T17:52:51.493Z,76.10
2018-04-27T17:55:19.404Z,76.80
2018-04-27T17:57:47.247Z,77.90
2018-04-27T18:00:15.959Z,80.00
2018-04-27T18:02:43.803Z,80.00
2018-04-27T18:05:12.448Z,81.30
2018-04-27T18:07:40.233Z,81.20
2018-04-27T18:10:08.258Z,81.90
2018-04-27T18:12:36.839Z,83.10
2018-04-27T18:15:04.795Z,83.10
2018-04-27T18:17:32.741Z,83.70
2018-04-27T18:20:01.391Z,84.40
2018-04-27T18:22:29.304Z,84.40
2018-04-27T18:24:57.866Z,85.30
2018-04-27T18:27:25.710Z,85.30
2018-04-27T18:29:53.591Z,85.60
2018-04-27T18:32:21.419Z,86.00
2018-04-27T18:34:49.251Z,86.60
2018-04-27T18:37:17.894Z,87.10
2018-04-27T18:39:45.744Z,87.10
2018-04-27T18:42:13.578Z,87.80
2018-04-27T18:44:41.463Z,88.10
2018-04-27T18:47:09.342Z,88.50
2018-04-27T18:49:37.216Z,88.60
2018-04-27T18:52:05.304Z,89.00
2018-04-27T18:54:33.196Z,88.80
2018-04-27T18:57:01.841Z,88.60
2018-04-27T18:59:29.715Z,88.60
2018-04-27T19:01:57.593Z,88.90
2018-04-27T19:04:25.492Z,89.20
2018-04-27T19:06:53.373Z,89.20
2018-04-27T19:09:21.265Z,89.40
2018-04-27T19:11:49.184Z,89.70
2018-04-27T19:14:17.834Z,90.10
2018-04-27T19:16:45.740Z,90.10
2018-04-27T19:19:14.394Z,90.30
2018-04-27T19:21:42.263Z,90.30
2018-04-27T19:24:10.148Z,90.30
2018-04-27T19:26:38.800Z,90.40
2018-04-27T19:29:06.679Z,90.70
2018-04-27T19:31:34.567Z,90.40
2018-04-27T19:34:03.584Z,90.60
2018-04-27T19:36:31.484Z,90.70
2018-04-27T19:38:59.354Z,90.70
2018-04-27T19:41:27.288Z,90.80
2018-04-27T19:43:55.160Z,91.00
2018-04-27T19:46:23.004Z,91.00
2018-04-27T19:48:51.663Z,91.40
2018-04-27T19:51:19.531Z,91.40
2018-04-27T19:53:47.424Z,91.50
2018-04-27T19:56:16.064Z,91.70
2018-04-27T19:58:43.964Z,91.60
2018-04-27T20:01:12.608Z,91.70
2018-04-27T20:03:40.471Z,91.70
2018-04-27T20:06:08.353Z,91.80
2018-04-27T20:08:36.254Z,91.80
2018-04-27T20:11:04.196Z,91.90
2018-04-27T20:13:32.332Z,91.90
2018-04-27T20:16:01.177Z,92.10
2018-04-27T20:18:29.906Z,92.30
2018-04-27T20:20:59.309Z,92.50
2018-04-27T20:23:30.114Z,92.40
2018-04-27T20:26:00.773Z,92.30
2018-04-27T20:28:29.639Z,92.40
2018-04-27T20:30:58.331Z,92.70
2018-04-27T20:33:26.318Z,92.70
2018-04-27T20:35:58.159Z,93.00
2018-04-27T20:38:29.420Z,92.90
2018-04-27T20:40:57.295Z,93.30
2018-04-27T20:43:27.010Z,93.10
2018-04-27T20:45:55.650Z,93.20
2018-04-27T20:48:26.122Z,93.50
2018-04-27T20:51:08.747Z,93.50
2018-04-27T20:53:55.283Z,93.60
2018-04-27T20:56:45.629Z,94.00
2018-04-27T20:59:14.518Z,93.80
2018-04-27T21:01:42.407Z,93.80
2018-04-27T21:04:10.327Z,94.00
2018-04-27T21:06:38.307Z,94.10
2018-04-27T21:09:06.171Z,94.20
2018-04-27T21:11:34.798Z,94.30
2018-04-27T21:14:03.459Z,94.40
2018-04-27T21:16:32.083Z,94.50
2018-04-27T21:18:59.967Z,94.50
2018-04-27T21:21:28.628Z,94.50
2018-04-27T21:23:56.578Z,94.50
2018-04-27T21:26:28.356Z,94.70
2018-04-27T21:28:57.212Z,94.50
2018-04-27T21:31:25.077Z,94.60
2018-04-27T21:33:53.857Z,94.60
2018-04-27T21:36:25.804Z,94.70
2018-04-27T21:39:10.468Z,94.70
2018-04-27T21:41:54.033Z,94.70
2018-04-27T21:44:25.839Z,94.80
2018-04-27T21:46:54.631Z,94.80
2018-04-27T21:49:25.279Z,94.90
2018-04-27T21:51:54.062Z,94.90
2018-04-27T21:54:22.853Z,95.00
2018-04-27T21:57:01.575Z,94.90
2018-04-27T21:59:38.110Z,95.00
2018-04-27T22:02:09.828Z,95.00
2018-04-27T22:04:37.704Z,95.00
2018-04-27T22:07:06.487Z,94.70
2018-04-27T22:09:54.247Z,94.80
2018-04-27T22:12:25.949Z,94.80
2018-04-27T22:14:53.839Z,94.90
2018-04-27T22:17:26.561Z,94.90
2018-04-27T22:19:55.241Z,95.00
2018-04-27T22:22:23.154Z,95.00
2018-04-27T22:27:51.300Z,94.90
2018-04-27T22:30:25.011Z,94.90
2018-04-27T22:32:53.667Z,95.00
2018-04-27T22:35:40.348Z,94.90
2018-04-27T22:38:13.029Z,94.90
2018-04-27T22:40:44.556Z,95.00
2018-04-27T22:43:14.269Z,95.10
2018-04-27T22:45:43.899Z,95.20
2018-04-27T22:51:14.008Z,95.10
2018-04-27T22:53:59.468Z,95.20
2018-04-27T22:59:29.308Z,95.20
2018-04-27T23:01:57.996Z,95.40
2018-04-27T23:04:26.637Z,95.30
2018-04-27T23:06:54.548Z,95.40
2018-04-27T23:09:23.191Z,95.50
2018-04-27T23:11:51.069Z,95.50
2018-04-27T23:14:32.333Z,95.40
2018-04-27T23:17:01.012Z,95.40
2018-04-27T23:22:35.033Z,95.50
2018-04-27T23:25:05.730Z,95.60
2018-04-27T23:27:34.365Z,95.60
2018-04-27T23:30:02.256Z,95.60
2018-04-27T23:32:30.136Z,95.70
2018-04-27T23:34:58.772Z,95.80
2018-04-27T23:37:26.635Z,95.70
2018-04-27T23:39:55.292Z,95.70
2018-04-27T23:42:26.879Z,95.70
2018-04-27T23:44:54.759Z,95.70
2018-04-27T23:47:22.649Z,95.80
2018-04-27T23:49:50.516Z,95.80
2018-04-27T23:52:18.411Z,95.80
2018-04-27T23:54:46.306Z,95.80
2018-04-27T23:57:15.161Z,95.80
2018-04-27T23:59:44.714Z,95.80
